• Join FlightAware (Why Join?)
  • Login
  • US Flag 
07:19AM EST


 

Airport Tracker/Info


-or-


 

Live Flight TrackerFlight Track Log ✈ AXM5247 ✈ 24-Sep-2013 ✈ WBGB / BTU - WMKK / KUL

Flight Track Log - Related Links

Times and Time Zones

All times are in EDT time to prevent confusion due to time zone crossing. See the AXM5247 flight status page for this flight to view local times or setup timezone preferences in your user account.

Time Position Orientation Groundspeed Altitude Reporting Facility
EDT Latitude Longitude Course Direction KTS MPH feet Rate Location/Type
09:44PM 2.9680 110.9380 261° West 487 560 35,600  Level FlightAware
09:45PM 2.9570 110.8650 261° West 489 563 36,000 960 Climbing FlightAware
09:45PM 2.9440 110.7840 261° West 484 557 36,700 960 Climbing FlightAware
09:46PM 2.9330 110.7080 262° West 485 558 37,200 780 Climbing FlightAware
09:47PM 2.9210 110.6240 262° West 488 562 37,700 660 Climbing FlightAware
09:47PM 2.9100 110.5530 261° West 492 566 38,000 240 Climbing FlightAware
09:48PM 2.8990 110.4750 262° West 494 568 38,000  Level FlightAware
09:48PM 2.8860 110.3900 261° West 491 565 38,000  Level FlightAware
09:49PM 2.8760 110.3210 262° West 491 565 38,000  Level FlightAware
09:50PM 2.8560 110.2220 259° West 491 565 38,000  Level FlightAware
09:50PM 2.8380 110.1370 258° West 491 565 38,000  Level FlightAware
09:51PM 2.8210 110.0590 258° West 491 565 38,000  Level FlightAware
09:51PM 2.8040 109.9810 258° West 491 565 38,000  Level FlightAware
09:52PM 2.7870 109.8990 258° West 490 564 38,000  Level FlightAware
09:53PM 2.7680 109.8110 258° West 489 563 38,000  Level FlightAware
09:53PM 2.7540 109.7450 258° West 488 562 38,000  Level FlightAware
09:54PM 2.7340 109.6540 258° West 488 562 38,000  Level FlightAware
09:54PM 2.7190 109.5830 258° West 487 560 38,000  Level FlightAware
09:55PM 2.7020 109.5030 258° West 486 559 38,000  Level FlightAware
09:56PM 2.6850 109.4230 258° West 485 558 38,000  Level FlightAware
09:56PM 2.6700 109.3540 258° West 485 558 38,000  Level FlightAware
09:57PM 2.6530 109.2730 258° West 486 559 38,000  Level FlightAware
09:57PM 2.6360 109.1960 258° West 485 558 38,000  Level FlightAware
09:58PM 2.6190 109.1160 258° West 484 557 38,000  Level FlightAware
09:59PM 2.6040 109.0460 258° West 483 556 38,000  Level FlightAware
09:59PM 2.5860 108.9640 258° West 482 555 38,000  Level FlightAware
10:00PM 2.5620 108.8860 253° West 482 555 38,000  Level FlightAware
10:00PM 2.5380 108.8240 249° West 482 555 38,000  Level FlightAware
10:01PM 2.5110 108.7530 249° West 483 556 38,000  Level FlightAware
10:01PM 2.4850 108.6860 249° West 483 556 38,000  Level FlightAware
10:02PM 2.4570 108.6120 249° West 484 557 38,000  Level FlightAware
10:03PM 2.4270 108.5360 248° West 483 556 38,000  Level FlightAware
10:03PM 2.4020 108.4710 249° West 483 556 38,000  Level FlightAware
10:04PM 2.3730 108.3940 249° West 483 556 38,000  Level FlightAware
10:04PM 2.3440 108.3210 248° West 483 556 38,000  Level FlightAware
10:05PM 2.3160 108.2480 249° West 483 556 38,000  Level FlightAware
10:06PM 2.2850 108.1670 249° West 483 556 38,000  Level FlightAware
10:06PM 2.2600 108.1010 249° West 483 556 38,000  Level FlightAware
10:07PM 2.2350 108.0370 249° West 483 556 38,000  Level FlightAware
10:07PM 2.2110 107.9730 249° West 483 556 38,000  Level FlightAware
10:08PM 2.1860 107.9100 248° West 483 556 38,000  Level FlightAware
10:09PM 2.1620 107.8460 249° West 483 556 38,000  Level FlightAware
10:09PM 2.1370 107.7820 249° West 483 556 38,000  Level FlightAware
10:10PM 2.1120 107.7160 249° West 483 556 38,000  Level FlightAware
10:10PM 2.0880 107.6520 249° West 483 556 38,000  Level FlightAware
10:11PM 2.0630 107.5880 249° West 483 556 38,000  Level FlightAware
10:11PM 2.0410 107.5320 249° West 483 556 38,000  Level FlightAware
10:12PM 2.0170 107.4680 249° West 483 556 38,000  Level FlightAware
10:13PM 1.9920 107.4020 249° West 483 556 38,000  Level FlightAware
10:13PM 1.9670 107.3380 249° West 483 556 38,000  Level FlightAware
10:14PM 1.9430 107.2740 249° West 483 556 38,000  Level FlightAware
10:15PM 1.9170 107.2090 248° West 483 556 38,000  Level FlightAware
10:15PM 1.8930 107.1450 249° West 483 556 38,000  Level FlightAware
10:18PM 1.9463 106.8087 279° West  Level Estimated
10:19PM 1.9687 106.6676 279° West  Level Estimated
10:20PM 1.9911 106.5265 279° West  Level Estimated
10:21PM 2.0134 106.3854 279° West  Level Estimated
10:22PM 2.0357 106.2443 279° West  Level Estimated
10:22PM 2.6510 106.0790 279° West 482 555 38,000  Level FlightAware
10:22PM 2.6720 106.0010 285° West 481 554 38,000  Level FlightAware
10:23PM 2.6920 105.9290 286° West 480 552 38,000  Level FlightAware
10:24PM 2.7160 105.8420 285° West 480 552 38,000 -540 Level FlightAware
10:24PM 2.7390 105.7590 286° West 475 547 37,300 -1,140 Descending FlightAware
10:25PM 2.7570 105.6940 285° West 476 548 36,800 -1,020 Descending FlightAware
10:25PM 2.7770 105.6190 285° West 471 542 36,200 -720 Descending FlightAware
10:26PM 2.7960 105.5520 286° West 467 537 36,000 -180 Descending FlightAware
10:27PM 2.8170 105.4740 285° West 469 540 36,000  Level FlightAware
10:27PM 2.8410 105.3880 286° West 471 542 36,000  Level FlightAware
10:28PM 2.8640 105.3040 285° West 471 542 36,000  Level FlightAware
10:28PM 2.8830 105.2350 285° West 470 541 36,000  Level FlightAware
10:29PM 2.8990 105.1770 285° West 471 542 36,000  Level FlightAware
10:30PM 2.9230 105.0880 285° West 470 541 36,000  Level FlightAware
10:30PM 2.9410 105.0220 285° West 470 541 36,000  Level FlightAware
10:31PM 2.9580 104.9570 285° West 470 541 36,000  Level FlightAware
10:32PM 2.9750 104.8930 285° West 470 541 36,000  Level FlightAware
10:32PM 3.0080 104.7800 286° West 471 542 36,000  Level FlightAware
10:33PM 3.0300 104.7010 286° West 470 541 36,000  Level FlightAware
10:33PM 3.0490 104.6340 286° West 470 541 36,000  Level FlightAware
10:34PM 3.0690 104.5620 286° West 469 540 36,000  Level FlightAware
10:34PM 3.0890 104.4870 285° West 467 537 36,000  Level FlightAware
10:35PM 3.1110 104.4080 286° West 466 536 36,000  Level FlightAware
10:36PM 3.1310 104.3320 285° West 466 536 36,000  Level FlightAware
10:36PM 3.1490 104.2660 285° West 466 536 36,000  Level FlightAware
10:37PM 3.1710 104.1600 282° West 467 537 36,000  Level FlightAware
10:38PM 3.1790 104.0920 277° West 467 537 36,000  Level FlightAware
10:38PM 3.1720 104.0070 265° West 471 542 36,000  Level FlightAware
10:39PM 3.1700 103.9480 268° West 471 542 36,000  Level FlightAware
10:39PM 3.1670 103.8570 268° West 473 544 36,000  Level FlightAware
10:40PM 3.1630 103.7540 268° West 473 544 36,000  Level FlightAware
10:41PM 3.1610 103.6870 268° West 473 544 36,000  Level FlightAware
10:41PM 3.1590 103.6200 268° West 473 544 36,000  Level FlightAware
10:42PM 3.1560 103.5530 267° West 473 544 36,000  Level FlightAware
10:43PM 3.1540 103.4860 268° West 473 544 36,000  Level FlightAware
10:43PM 3.1520 103.4190 268° West 473 544 36,000  Level FlightAware
10:44PM 3.1490 103.3520 267° West 473 544 36,000 -5,340 Level FlightAware
10:45PM 3.1060 103.1640 257° West 453 521 28,200 -5,100 Descending FlightAware
10:45PM 3.0970 103.0940 263° West 453 521 28,200 -1,440 Level FlightAware
10:46PM 3.1000 103.1190 83° East 426 490 26,000 -2,400 Descending FlightAware
10:47PM 3.1000 103.1210 90° East 426 490 24,400 -1,200 Descending FlightAware
10:48PM 3.0920 103.0610 262° West 426 490 24,400  Level FlightAware
10:48PM 3.0840 103.0010 262° West 426 490 24,400  Level FlightAware
10:49PM 3.0750 102.9420 261° West 426 490 24,400  Level FlightAware
10:49PM 3.0670 102.8820 262° West 426 490 24,400  Level FlightAware
10:50PM 3.0580 102.8220 261° West 426 490 24,400  Level FlightAware
10:53PM 2.9576 102.4641 254° West  Level Estimated
10:54PM 2.9190 102.3265 254° West  Level Estimated
10:55PM 2.8803 102.1889 254° West  Level Estimated
10:56PM 2.8416 102.0512 254° West  Level Estimated
10:57PM 2.8029 101.9137 254° West  Level Estimated
10:58PM 2.7729 101.8068 254° West  Level Estimated
10:59PM 2.7456 101.7099 254° West  Level Estimated
11:00PM 2.7456 101.7099 236° Southwest  Level Estimated
11:01PM 2.7456 101.7099 236° Southwest  Level Estimated
11:02PM 2.7456 101.7099 236° Southwest  Level Estimated
11:03PM 2.7456 101.7099 236° Southwest  Level Estimated
11:04PM 2.7456 101.7099 236° Southwest  Level Estimated
11:05PM 2.7456 101.7099 236° Southwest  Level Estimated
11:06PM 2.7456 101.7099 236° Southwest  Level Estimated
11:07PM 2.7456 101.7099 236° Southwest  Level Estimated
11:08PM 2.7456 101.7099 236° Southwest  Level Estimated
11:09PM 2.7456 101.7099 236° Southwest  Level Estimated
11:10PM 2.7456 101.7099 236° Southwest  Level Estimated
11:11PM 2.7456 101.7099 236° Southwest  Level Estimated
11:12PM 2.7456 101.7099 236° Southwest  Level Estimated